sensor_id;sensor_type;location;lat;lon;timestamp;temperature;humidity
47857;DHT22;33618;49.972;8.242;2023-04-10T00:02:22;7.10;99.90
47857;DHT22;33618;49.972;8.242;2023-04-10T00:04:49;7.00;99.90
47857;DHT22;33618;49.972;8.242;2023-04-10T00:07:16;7.00;99.90
47857;DHT22;33618;49.972;8.242;2023-04-10T00:09:43;7.00;99.90
47857;DHT22;33618;49.972;8.242;2023-04-10T00:12:10;7.10;99.90
47857;DHT22;33618;49.972;8.242;2023-04-10T00:14:37;7.00;99.90
47857;DHT22;33618;49.972;8.242;2023-04-10T00:17:04;7.00;99.90
47857;DHT22;33618;49.972;8.242;2023-04-10T00:19:31;6.90;99.90
47857;DHT22;33618;49.972;8.242;2023-04-10T00:21:58;6.80;99.90
47857;DHT22;33618;49.972;8.242;2023-04-10T00:24:25;6.90;99.90
47857;DHT22;33618;49.972;8.242;2023-04-10T00:26:52;6.80;99.90
47857;DHT22;33618;49.972;8.242;2023-04-10T00:29:18;6.90;99.90
47857;DHT22;33618;49.972;8.242;2023-04-10T00:31:46;6.80;99.90
47857;DHT22;33618;49.972;8.242;2023-04-10T00:34:12;6.70;99.90
47857;DHT22;33618;49.972;8.242;2023-04-10T00:36:39;6.60;99.90
47857;DHT22;33618;49.972;8.242;2023-04-10T00:39:07;6.70;99.90
47857;DHT22;33618;49.972;8.242;2023-04-10T00:41:34;6.70;99.90
47857;DHT22;33618;49.972;8.242;2023-04-10T00:44:01;6.60;99.90
47857;DHT22;33618;49.972;8.242;2023-04-10T00:46:29;6.50;99.90
47857;DHT22;33618;49.972;8.242;2023-04-10T00:48:57;6.50;99.90
47857;DHT22;33618;49.972;8.242;2023-04-10T00:51:24;6.50;99.90
47857;DHT22;33618;49.972;8.242;2023-04-10T00:53:52;6.50;99.90
47857;DHT22;33618;49.972;8.242;2023-04-10T00:56:23;6.40;99.90
47857;DHT22;33618;49.972;8.242;2023-04-10T00:58:50;6.30;99.90
47857;DHT22;33618;49.972;8.242;2023-04-10T01:01:17;6.30;99.90
47857;DHT22;33618;49.972;8.242;2023-04-10T01:03:44;6.20;99.90
47857;DHT22;33618;49.972;8.242;2023-04-10T01:22:01;6.00;99.90
47857;DHT22;33618;49.972;8.242;2023-04-10T01:24:34;6.00;99.90
47857;DHT22;33618;49.972;8.242;2023-04-10T01:30:20;6.10;99.90
47857;DHT22;33618;49.972;8.242;2023-04-10T01:32:49;6.10;99.90
47857;DHT22;33618;49.972;8.242;2023-04-10T01:35:17;6.00;99.90
47857;DHT22;33618;49.972;8.242;2023-04-10T01:37:46;6.00;99.90
47857;DHT22;33618;49.972;8.242;2023-04-10T01:40:15;6.00;99.90
47857;DHT22;33618;49.972;8.242;2023-04-10T01:42:47;6.10;99.90
47857;DHT22;33618;49.972;8.242;2023-04-10T01:45:19;6.00;99.90
47857;DHT22;33618;49.972;8.242;2023-04-10T01:47:47;6.00;99.90
47857;DHT22;33618;49.972;8.242;2023-04-10T01:50:14;6.00;99.90
47857;DHT22;33618;49.972;8.242;2023-04-10T01:52:43;6.10;99.90
47857;DHT22;33618;49.972;8.242;2023-04-10T01:55:10;6.00;99.90
47857;DHT22;33618;49.972;8.242;2023-04-10T01:57:37;6.00;99.90
47857;DHT22;33618;49.972;8.242;2023-04-10T02:00:05;5.90;99.90
47857;DHT22;33618;49.972;8.242;2023-04-10T02:02:33;5.90;99.90
47857;DHT22;33618;49.972;8.242;2023-04-10T02:05:00;5.90;99.90
47857;DHT22;33618;49.972;8.242;2023-04-10T02:07:38;5.90;99.90
47857;DHT22;33618;49.972;8.242;2023-04-10T02:10:14;5.80;99.90
47857;DHT22;33618;49.972;8.242;2023-04-10T02:12:49;5.80;99.90
47857;DHT22;33618;49.972;8.242;2023-04-10T02:15:21;5.80;99.90
47857;DHT22;33618;49.972;8.242;2023-04-10T02:17:49;5.80;99.90
47857;DHT22;33618;49.972;8.242;2023-04-10T02:20:18;5.80;99.90
47857;DHT22;33618;49.972;8.242;2023-04-10T02:22:45;5.80;99.90
47857;DHT22;33618;49.972;8.242;2023-04-10T02:25:13;5.80;99.90
47857;DHT22;33618;49.972;8.242;2023-04-10T02:27:40;5.70;99.90
47857;DHT22;33618;49.972;8.242;2023-04-10T02:30:08;5.80;99.90
47857;DHT22;33618;49.972;8.242;2023-04-10T02:32:35;5.70;99.90
47857;DHT22;33618;49.972;8.242;2023-04-10T02:35:02;5.70;99.90
47857;DHT22;33618;49.972;8.242;2023-04-10T02:37:30;5.70;99.90
47857;DHT22;33618;49.972;8.242;2023-04-10T02:39:56;5.60;99.90
47857;DHT22;33618;49.972;8.242;2023-04-10T02:42:23;5.60;99.90
47857;DHT22;33618;49.972;8.242;2023-04-10T02:44:50;5.60;99.90
47857;DHT22;33618;49.972;8.242;2023-04-10T02:47:17;5.60;99.90
47857;DHT22;33618;49.972;8.242;2023-04-10T02:49:44;5.60;99.90
47857;DHT22;33618;49.972;8.242;2023-04-10T02:52:11;5.50;99.90
47857;DHT22;33618;49.972;8.242;2023-04-10T02:54:38;5.50;99.90
47857;DHT22;33618;49.972;8.242;2023-04-10T02:57:05;5.60;99.90
47857;DHT22;33618;49.972;8.242;2023-04-10T02:59:33;5.60;99.90
47857;DHT22;33618;49.972;8.242;2023-04-10T03:02:00;5.60;99.90
47857;DHT22;33618;49.972;8.242;2023-04-10T03:04:27;5.60;99.90
47857;DHT22;33618;49.972;8.242;2023-04-10T03:06:54;5.60;99.90
47857;DHT22;33618;49.972;8.242;2023-04-10T03:09:21;5.60;99.90
47857;DHT22;33618;49.972;8.242;2023-04-10T03:11:48;5.60;99.90
47857;DHT22;33618;49.972;8.242;2023-04-10T03:14:15;5.60;99.90
47857;DHT22;33618;49.972;8.242;2023-04-10T03:16:42;5.70;99.90
47857;DHT22;33618;49.972;8.242;2023-04-10T03:19:09;5.70;99.90
47857;DHT22;33618;49.972;8.242;2023-04-10T03:21:38;5.60;99.90
47857;DHT22;33618;49.972;8.242;2023-04-10T03:24:05;5.60;99.90
47857;DHT22;33618;49.972;8.242;2023-04-10T03:26:32;5.50;99.90
47857;DHT22;33618;49.972;8.242;2023-04-10T03:28:59;5.50;99.90
47857;DHT22;33618;49.972;8.242;2023-04-10T03:31:26;5.60;99.90
47857;DHT22;33618;49.972;8.242;2023-04-10T03:33:53;5.60;99.90
47857;DHT22;33618;49.972;8.242;2023-04-10T03:36:20;5.50;99.90
47857;DHT22;33618;49.972;8.242;2023-04-10T03:38:47;5.50;99.90
47857;DHT22;33618;49.972;8.242;2023-04-10T03:41:14;5.50;99.90
47857;DHT22;33618;49.972;8.242;2023-04-10T03:43:41;5.50;99.90
47857;DHT22;33618;49.972;8.242;2023-04-10T03:46:08;5.50;99.90
47857;DHT22;33618;49.972;8.242;2023-04-10T03:48:34;5.50;99.90
47857;DHT22;33618;49.972;8.242;2023-04-10T03:51:02;5.40;99.90
47857;DHT22;33618;49.972;8.242;2023-04-10T03:53:28;5.40;99.90
47857;DHT22;33618;49.972;8.242;2023-04-10T03:55:55;5.40;99.90
47857;DHT22;33618;49.972;8.242;2023-04-10T03:58:22;5.40;99.90
47857;DHT22;33618;49.972;8.242;2023-04-10T04:00:49;5.40;99.90
47857;DHT22;33618;49.972;8.242;2023-04-10T04:03:17;5.40;99.90
47857;DHT22;33618;49.972;8.242;2023-04-10T04:05:44;5.30;99.90
47857;DHT22;33618;49.972;8.242;2023-04-10T04:08:11;5.30;99.90
47857;DHT22;33618;49.972;8.242;2023-04-10T04:10:39;5.30;99.90
47857;DHT22;33618;49.972;8.242;2023-04-10T04:13:06;5.30;99.90
47857;DHT22;33618;49.972;8.242;2023-04-10T04:15:33;5.30;99.90
47857;DHT22;33618;49.972;8.242;2023-04-10T04:18:00;5.30;99.90
47857;DHT22;33618;49.972;8.242;2023-04-10T04:20:27;5.30;99.90
47857;DHT22;33618;49.972;8.242;2023-04-10T04:22:54;5.20;99.90
47857;DHT22;33618;49.972;8.242;2023-04-10T04:25:21;5.30;99.90
47857;DHT22;33618;49.972;8.242;2023-04-10T04:27:48;5.20;99.90
47857;DHT22;33618;49.972;8.242;2023-04-10T04:30:15;5.20;99.90
47857;DHT22;33618;49.972;8.242;2023-04-10T04:32:41;5.10;99.90
47857;DHT22;33618;49.972;8.242;2023-04-10T04:35:09;5.10;99.90
47857;DHT22;33618;49.972;8.242;2023-04-10T04:37:36;5.10;99.90
47857;DHT22;33618;49.972;8.242;2023-04-10T04:40:03;5.20;99.90
47857;DHT22;33618;49.972;8.242;2023-04-10T04:42:30;5.20;99.90
47857;DHT22;33618;49.972;8.242;2023-04-10T04:44:57;5.20;99.90
47857;DHT22;33618;49.972;8.242;2023-04-10T04:47:23;5.20;99.90
47857;DHT22;33618;49.972;8.242;2023-04-10T04:49:50;5.10;99.90
47857;DHT22;33618;49.972;8.242;2023-04-10T04:52:17;5.20;99.90
47857;DHT22;33618;49.972;8.242;2023-04-10T04:54:44;5.30;99.90
47857;DHT22;33618;49.972;8.242;2023-04-10T04:57:11;5.30;99.90
47857;DHT22;33618;49.972;8.242;2023-04-10T04:59:38;5.30;99.90
47857;DHT22;33618;49.972;8.242;2023-04-10T05:02:05;5.30;99.90
47857;DHT22;33618;49.972;8.242;2023-04-10T05:04:32;5.30;99.90
47857;DHT22;33618;49.972;8.242;2023-04-10T05:06:59;5.30;99.90
47857;DHT22;33618;49.972;8.242;2023-04-10T05:09:26;5.30;99.90
47857;DHT22;33618;49.972;8.242;2023-04-10T05:11:52;5.30;99.90
47857;DHT22;33618;49.972;8.242;2023-04-10T05:14:20;5.30;99.90
47857;DHT22;33618;49.972;8.242;2023-04-10T05:16:47;5.40;99.90
47857;DHT22;33618;49.972;8.242;2023-04-10T05:19:14;5.40;99.90
47857;DHT22;33618;49.972;8.242;2023-04-10T05:21:41;5.50;99.90
47857;DHT22;33618;49.972;8.242;2023-04-10T05:24:08;5.40;99.90
47857;DHT22;33618;49.972;8.242;2023-04-10T05:26:35;5.50;99.90
47857;DHT22;33618;49.972;8.242;2023-04-10T05:29:01;5.50;99.90
47857;DHT22;33618;49.972;8.242;2023-04-10T05:31:28;5.60;99.90
47857;DHT22;33618;49.972;8.242;2023-04-10T05:33:55;5.60;99.90
47857;DHT22;33618;49.972;8.242;2023-04-10T05:36:22;5.60;99.90
47857;DHT22;33618;49.972;8.242;2023-04-10T05:38:49;5.70;99.90
47857;DHT22;33618;49.972;8.242;2023-04-10T05:41:16;5.70;99.90
47857;DHT22;33618;49.972;8.242;2023-04-10T05:43:42;5.70;99.90
47857;DHT22;33618;49.972;8.242;2023-04-10T05:46:09;5.70;99.90
47857;DHT22;33618;49.972;8.242;2023-04-10T05:48:37;5.80;99.90
47857;DHT22;33618;49.972;8.242;2023-04-10T05:51:05;5.80;99.90
47857;DHT22;33618;49.972;8.242;2023-04-10T05:53:31;5.80;99.90
47857;DHT22;33618;49.972;8.242;2023-04-10T05:55:58;5.90;99.90
47857;DHT22;33618;49.972;8.242;2023-04-10T05:58:25;5.80;99.90
47857;DHT22;33618;49.972;8.242;2023-04-10T06:00:52;5.90;99.90
47857;DHT22;33618;49.972;8.242;2023-04-10T06:03:19;5.90;99.90
47857;DHT22;33618;49.972;8.242;2023-04-10T06:05:46;5.90;99.90
47857;DHT22;33618;49.972;8.242;2023-04-10T06:08:13;6.00;99.90
47857;DHT22;33618;49.972;8.242;2023-04-10T06:10:39;6.00;99.90
47857;DHT22;33618;49.972;8.242;2023-04-10T06:13:06;6.00;99.90
47857;DHT22;33618;49.972;8.242;2023-04-10T06:15:36;6.10;99.90
47857;DHT22;33618;49.972;8.242;2023-04-10T06:18:03;6.10;99.90
47857;DHT22;33618;49.972;8.242;2023-04-10T06:20:30;6.20;99.90
47857;DHT22;33618;49.972;8.242;2023-04-10T06:22:58;6.30;99.90
47857;DHT22;33618;49.972;8.242;2023-04-10T06:25:25;6.40;99.90
47857;DHT22;33618;49.972;8.242;2023-04-10T06:27:52;6.40;99.90
47857;DHT22;33618;49.972;8.242;2023-04-10T06:30:19;6.50;99.90
47857;DHT22;33618;49.972;8.242;2023-04-10T06:32:46;6.60;99.90
47857;DHT22;33618;49.972;8.242;2023-04-10T06:35:13;6.70;99.90
47857;DHT22;33618;49.972;8.242;2023-04-10T06:37:41;6.70;99.90
47857;DHT22;33618;49.972;8.242;2023-04-10T06:40:09;6.70;99.90
47857;DHT22;33618;49.972;8.242;2023-04-10T06:42:36;6.80;99.90
47857;DHT22;33618;49.972;8.242;2023-04-10T06:45:04;6.90;99.90
47857;DHT22;33618;49.972;8.242;2023-04-10T06:47:31;6.90;99.90
47857;DHT22;33618;49.972;8.242;2023-04-10T06:49:58;7.10;99.90
47857;DHT22;33618;49.972;8.242;2023-04-10T06:52:25;7.20;99.90
47857;DHT22;33618;49.972;8.242;2023-04-10T06:54:52;7.30;99.90
47857;DHT22;33618;49.972;8.242;2023-04-10T06:57:19;7.30;99.90
47857;DHT22;33618;49.972;8.242;2023-04-10T06:59:45;7.50;99.90
47857;DHT22;33618;49.972;8.242;2023-04-10T07:02:12;7.50;99.90
47857;DHT22;33618;49.972;8.242;2023-04-10T07:04:41;7.60;99.90
47857;DHT22;33618;49.972;8.242;2023-04-10T07:07:07;7.70;99.90
47857;DHT22;33618;49.972;8.242;2023-04-10T07:09:36;7.80;99.90
47857;DHT22;33618;49.972;8.242;2023-04-10T07:12:03;7.90;99.90
47857;DHT22;33618;49.972;8.242;2023-04-10T07:14:32;8.00;99.90
47857;DHT22;33618;49.972;8.242;2023-04-10T07:17:00;8.10;99.90
47857;DHT22;33618;49.972;8.242;2023-04-10T07:19:27;8.30;99.90
47857;DHT22;33618;49.972;8.242;2023-04-10T07:21:54;8.30;99.90
47857;DHT22;33618;49.972;8.242;2023-04-10T07:24:21;8.40;99.90
47857;DHT22;33618;49.972;8.242;2023-04-10T07:41:46;9.10;99.90
47857;DHT22;33618;49.972;8.242;2023-04-10T07:44:14;9.10;99.90
47857;DHT22;33618;49.972;8.242;2023-04-10T07:46:40;9.10;99.30
47857;DHT22;33618;49.972;8.242;2023-04-10T07:49:08;9.20;99.20
47857;DHT22;33618;49.972;8.242;2023-04-10T07:51:34;9.30;98.80
47857;DHT22;33618;49.972;8.242;2023-04-10T07:54:02;9.40;98.40
47857;DHT22;33618;49.972;8.242;2023-04-10T07:56:30;9.50;98.90
47857;DHT22;33618;49.972;8.242;2023-04-10T07:58:58;9.60;98.50
47857;DHT22;33618;49.972;8.242;2023-04-10T08:01:27;9.70;98.50
47857;DHT22;33618;49.972;8.242;2023-04-10T08:03:54;9.80;97.70
47857;DHT22;33618;49.972;8.242;2023-04-10T08:06:24;10.00;96.60
47857;DHT22;33618;49.972;8.242;2023-04-10T08:08:51;10.10;96.20
47857;DHT22;33618;49.972;8.242;2023-04-10T08:11:31;10.20;95.50
47857;DHT22;33618;49.972;8.242;2023-04-10T08:14:01;10.30;94.70
47857;DHT22;33618;49.972;8.242;2023-04-10T08:16:31;10.30;94.00
47857;DHT22;33618;49.972;8.242;2023-04-10T08:18:59;10.40;93.60
47857;DHT22;33618;49.972;8.242;2023-04-10T08:21:28;10.50;94.40
47857;DHT22;33618;49.972;8.242;2023-04-10T08:23:57;10.60;93.90
47857;DHT22;33618;49.972;8.242;2023-04-10T08:26:25;10.60;93.70
47857;DHT22;33618;49.972;8.242;2023-04-10T08:28:54;10.70;94.20
47857;DHT22;33618;49.972;8.242;2023-04-10T08:31:23;10.80;94.50
47857;DHT22;33618;49.972;8.242;2023-04-10T08:33:51;10.90;94.10
47857;DHT22;33618;49.972;8.242;2023-04-10T08:36:19;11.00;94.10
47857;DHT22;33618;49.972;8.242;2023-04-10T08:38:47;11.20;93.70
47857;DHT22;33618;49.972;8.242;2023-04-10T08:41:16;11.30;93.60
47857;DHT22;33618;49.972;8.242;2023-04-10T08:43:43;11.50;92.20
47857;DHT22;33618;49.972;8.242;2023-04-10T08:46:12;11.70;93.70
47857;DHT22;33618;49.972;8.242;2023-04-10T08:48:47;12.10;92.70
47857;DHT22;33618;49.972;8.242;2023-04-10T08:51:21;12.40;93.40
47857;DHT22;33618;49.972;8.242;2023-04-10T08:53:57;12.70;90.50
47857;DHT22;33618;49.972;8.242;2023-04-10T08:56:25;13.10;90.70
47857;DHT22;33618;49.972;8.242;2023-04-10T08:58:53;13.60;89.50
47857;DHT22;33618;49.972;8.242;2023-04-10T09:01:20;14.20;87.50
47857;DHT22;33618;49.972;8.242;2023-04-10T09:03:48;14.50;85.30
47857;DHT22;33618;49.972;8.242;2023-04-10T09:06:15;15.20;82.80
47857;DHT22;33618;49.972;8.242;2023-04-10T09:08:41;15.30;81.80
47857;DHT22;33618;49.972;8.242;2023-04-10T09:11:08;15.40;80.90
47857;DHT22;33618;49.972;8.242;2023-04-10T09:13:41;16.00;80.20
47857;DHT22;33618;49.972;8.242;2023-04-10T09:16:10;16.80;78.50
47857;DHT22;33618;49.972;8.242;2023-04-10T09:18:45;16.40;76.80
47857;DHT22;33618;49.972;8.242;2023-04-10T09:21:15;16.70;75.50
47857;DHT22;33618;49.972;8.242;2023-04-10T09:23:43;16.80;76.50
47857;DHT22;33618;49.972;8.242;2023-04-10T09:26:30;17.10;75.80
47857;DHT22;33618;49.972;8.242;2023-04-10T09:29:00;16.80;75.70
47857;DHT22;33618;49.972;8.242;2023-04-10T09:31:34;17.00;74.50
47857;DHT22;33618;49.972;8.242;2023-04-10T09:34:19;16.50;75.40
47857;DHT22;33618;49.972;8.242;2023-04-10T09:36:58;16.70;74.90
47857;DHT22;33618;49.972;8.242;2023-04-10T09:39:37;16.50;74.90
47857;DHT22;33618;49.972;8.242;2023-04-10T09:42:09;16.30;74.20
47857;DHT22;33618;49.972;8.242;2023-04-10T09:44:39;16.20;74.60
47857;DHT22;33618;49.972;8.242;2023-04-10T09:47:21;16.30;75.30
47857;DHT22;33618;49.972;8.242;2023-04-10T09:49:50;17.00;74.40
47857;DHT22;33618;49.972;8.242;2023-04-10T09:52:32;17.30;73.40
47857;DHT22;33618;49.972;8.242;2023-04-10T09:55:04;17.40;74.20
47857;DHT22;33618;49.972;8.242;2023-04-10T09:57:32;18.00;72.60
47857;DHT22;33618;49.972;8.242;2023-04-10T10:00:04;18.50;72.80
47857;DHT22;33618;49.972;8.242;2023-04-10T10:02:36;18.80;71.00
47857;DHT22;33618;49.972;8.242;2023-04-10T10:05:07;19.10;71.40
47857;DHT22;33618;49.972;8.242;2023-04-10T10:07:35;19.30;70.70
47857;DHT22;33618;49.972;8.242;2023-04-10T10:10:02;19.50;69.80
47857;DHT22;33618;49.972;8.242;2023-04-10T10:12:47;19.20;68.80
47857;DHT22;33618;49.972;8.242;2023-04-10T10:15:39;19.20;68.60
47857;DHT22;33618;49.972;8.242;2023-04-10T10:21:16;20.10;68.00
47857;DHT22;33618;49.972;8.242;2023-04-10T10:23:44;19.70;67.00
47857;DHT22;33618;49.972;8.242;2023-04-10T10:26:14;19.40;67.00
47857;DHT22;33618;49.972;8.242;2023-04-10T10:28:42;19.60;67.20
47857;DHT22;33618;49.972;8.242;2023-04-10T10:31:09;19.40;67.30
47857;DHT22;33618;49.972;8.242;2023-04-10T10:33:37;19.60;66.60
47857;DHT22;33618;49.972;8.242;2023-04-10T10:36:04;19.80;67.50
47857;DHT22;33618;49.972;8.242;2023-04-10T10:38:31;19.30;66.30
47857;DHT22;33618;49.972;8.242;2023-04-10T10:43:58;18.80;67.10
47857;DHT22;33618;49.972;8.242;2023-04-10T10:46:59;19.30;66.50
47857;DHT22;33618;49.972;8.242;2023-04-10T10:49:22;19.20;65.50
47857;DHT22;33618;49.972;8.242;2023-04-10T10:51:59;18.80;65.80
47857;DHT22;33618;49.972;8.242;2023-04-10T10:54:34;19.10;66.00
47857;DHT22;33618;49.972;8.242;2023-04-10T11:00:10;19.80;65.50
47857;DHT22;33618;49.972;8.242;2023-04-10T11:02:37;20.10;64.80
47857;DHT22;33618;49.972;8.242;2023-04-10T11:05:04;20.00;64.70
47857;DHT22;33618;49.972;8.242;2023-04-10T11:11:01;20.10;65.30
47857;DHT22;33618;49.972;8.242;2023-04-10T11:13:29;20.10;62.20
47857;DHT22;33618;49.972;8.242;2023-04-10T11:15:56;20.10;62.30
47857;DHT22;33618;49.972;8.242;2023-04-10T11:21:22;19.80;61.40
47857;DHT22;33618;49.972;8.242;2023-04-10T11:31:38;19.40;60.00
47857;DHT22;33618;49.972;8.242;2023-04-10T11:34:06;19.20;61.00
47857;DHT22;33618;49.972;8.242;2023-04-10T11:36:36;19.10;61.60
47857;DHT22;33618;49.972;8.242;2023-04-10T11:39:06;18.90;60.50
47857;DHT22;33618;49.972;8.242;2023-04-10T11:41:40;18.80;61.80
47857;DHT22;33618;49.972;8.242;2023-04-10T11:44:09;18.60;61.50
47857;DHT22;33618;49.972;8.242;2023-04-10T11:46:37;18.60;61.40
47857;DHT22;33618;49.972;8.242;2023-04-10T11:49:06;18.90;62.10
47857;DHT22;33618;49.972;8.242;2023-04-10T11:51:33;19.30;61.40
47857;DHT22;33618;49.972;8.242;2023-04-10T11:54:07;18.90;60.20
47857;DHT22;33618;49.972;8.242;2023-04-10T11:56:35;19.00;60.40
47857;DHT22;33618;49.972;8.242;2023-04-10T11:59:03;19.00;60.60
47857;DHT22;33618;49.972;8.242;2023-04-10T12:01:39;19.20;60.00
47857;DHT22;33618;49.972;8.242;2023-04-10T12:04:16;19.20;60.80
47857;DHT22;33618;49.972;8.242;2023-04-10T12:06:55;19.10;60.30
47857;DHT22;33618;49.972;8.242;2023-04-10T12:09:23;19.30;61.00
47857;DHT22;33618;49.972;8.242;2023-04-10T12:12:06;19.40;61.00
47857;DHT22;33618;49.972;8.242;2023-04-10T12:14:37;19.40;60.20
47857;DHT22;33618;49.972;8.242;2023-04-10T12:17:06;19.40;60.80
47857;DHT22;33618;49.972;8.242;2023-04-10T12:19:33;19.40;60.90
47857;DHT22;33618;49.972;8.242;2023-04-10T12:22:01;19.50;59.50
47857;DHT22;33618;49.972;8.242;2023-04-10T12:27:21;19.80;60.40
47857;DHT22;33618;49.972;8.242;2023-04-10T12:29:50;20.10;60.60
47857;DHT22;33618;49.972;8.242;2023-04-10T12:32:17;20.20;59.20
47857;DHT22;33618;49.972;8.242;2023-04-10T12:34:55;20.30;59.90
47857;DHT22;33618;49.972;8.242;2023-04-10T12:37:50;20.60;61.00
47857;DHT22;33618;49.972;8.242;2023-04-10T12:40:17;20.50;60.10
47857;DHT22;33618;49.972;8.242;2023-04-10T12:42:46;20.50;60.20
47857;DHT22;33618;49.972;8.242;2023-04-10T12:45:13;20.90;59.50
47857;DHT22;33618;49.972;8.242;2023-04-10T12:47:48;21.10;59.70
47857;DHT22;33618;49.972;8.242;2023-04-10T12:50:18;21.10;59.40
47857;DHT22;33618;49.972;8.242;2023-04-10T12:53:01;20.80;58.10
47857;DHT22;33618;49.972;8.242;2023-04-10T12:55:29;20.80;59.50
47857;DHT22;33618;49.972;8.242;2023-04-10T12:57:56;21.00;59.20
47857;DHT22;33618;49.972;8.242;2023-04-10T13:00:24;21.20;59.10
47857;DHT22;33618;49.972;8.242;2023-04-10T13:02:51;21.10;58.00
47857;DHT22;33618;49.972;8.242;2023-04-10T13:05:19;21.30;58.20
47857;DHT22;33618;49.972;8.242;2023-04-10T13:07:47;21.20;58.50
47857;DHT22;33618;49.972;8.242;2023-04-10T13:10:18;20.90;58.30
47857;DHT22;33618;49.972;8.242;2023-04-10T13:12:46;20.70;59.20
47857;DHT22;33618;49.972;8.242;2023-04-10T13:15:12;20.60;58.60
47857;DHT22;33618;49.972;8.242;2023-04-10T13:17:39;20.40;59.50
47857;DHT22;33618;49.972;8.242;2023-04-10T13:20:09;20.20;58.80
47857;DHT22;33618;49.972;8.242;2023-04-10T13:22:36;20.20;58.90
47857;DHT22;33618;49.972;8.242;2023-04-10T13:25:03;20.20;59.30
47857;DHT22;33618;49.972;8.242;2023-04-10T13:27:30;20.10;58.10
47857;DHT22;33618;49.972;8.242;2023-04-10T13:29:57;20.10;57.70
47857;DHT22;33618;49.972;8.242;2023-04-10T13:32:24;20.30;59.10
47857;DHT22;33618;49.972;8.242;2023-04-10T13:34:51;20.20;57.90
47857;DHT22;33618;49.972;8.242;2023-04-10T13:37:20;20.10;59.00
47857;DHT22;33618;49.972;8.242;2023-04-10T13:39:47;20.20;57.60
47857;DHT22;33618;49.972;8.242;2023-04-10T13:42:14;19.90;56.90
47857;DHT22;33618;49.972;8.242;2023-04-10T13:44:41;19.90;58.50
47857;DHT22;33618;49.972;8.242;2023-04-10T13:47:08;20.10;57.00
47857;DHT22;33618;49.972;8.242;2023-04-10T13:49:35;20.60;57.20
47857;DHT22;33618;49.972;8.242;2023-04-10T13:52:01;21.00;57.40
47857;DHT22;33618;49.972;8.242;2023-04-10T13:54:28;21.00;56.00
47857;DHT22;33618;49.972;8.242;2023-04-10T13:56:55;21.10;56.10
47857;DHT22;33618;49.972;8.242;2023-04-10T13:59:23;21.10;56.60
47857;DHT22;33618;49.972;8.242;2023-04-10T14:01:50;21.10;56.10
47857;DHT22;33618;49.972;8.242;2023-04-10T14:04:18;20.80;55.90
47857;DHT22;33618;49.972;8.242;2023-04-10T14:06:45;20.70;55.80
47857;DHT22;33618;49.972;8.242;2023-04-10T14:09:12;20.40;55.40
47857;DHT22;33618;49.972;8.242;2023-04-10T14:11:38;20.40;56.30
47857;DHT22;33618;49.972;8.242;2023-04-10T14:14:05;20.50;56.00
47857;DHT22;33618;49.972;8.242;2023-04-10T14:16:32;20.60;55.50
47857;DHT22;33618;49.972;8.242;2023-04-10T14:18:59;20.40;56.30
47857;DHT22;33618;49.972;8.242;2023-04-10T14:21:26;20.60;55.50
47857;DHT22;33618;49.972;8.242;2023-04-10T14:23:53;20.60;55.90
47857;DHT22;33618;49.972;8.242;2023-04-10T14:26:19;20.70;55.70
47857;DHT22;33618;49.972;8.242;2023-04-10T14:28:47;20.50;56.70
47857;DHT22;33618;49.972;8.242;2023-04-10T14:31:13;20.30;56.70
47857;DHT22;33618;49.972;8.242;2023-04-10T14:33:40;20.40;57.00
47857;DHT22;33618;49.972;8.242;2023-04-10T14:36:08;20.10;56.70
47857;DHT22;33618;49.972;8.242;2023-04-10T14:38:35;20.20;57.20
47857;DHT22;33618;49.972;8.242;2023-04-10T14:41:02;20.40;57.70
47857;DHT22;33618;49.972;8.242;2023-04-10T14:43:29;20.10;56.30
47857;DHT22;33618;49.972;8.242;2023-04-10T14:45:56;20.10;56.70
47857;DHT22;33618;49.972;8.242;2023-04-10T14:48:24;20.00;57.10
47857;DHT22;33618;49.972;8.242;2023-04-10T14:50:51;19.90;57.60
47857;DHT22;33618;49.972;8.242;2023-04-10T14:53:18;19.80;58.20
47857;DHT22;33618;49.972;8.242;2023-04-10T14:55:47;19.50;58.50
47857;DHT22;33618;49.972;8.242;2023-04-10T14:58:14;19.30;59.10
47857;DHT22;33618;49.972;8.242;2023-04-10T15:00:41;19.10;58.40
47857;DHT22;33618;49.972;8.242;2023-04-10T15:03:09;19.20;59.10
47857;DHT22;33618;49.972;8.242;2023-04-10T15:05:36;19.10;58.40
47857;DHT22;33618;49.972;8.242;2023-04-10T15:08:03;19.00;59.00
47857;DHT22;33618;49.972;8.242;2023-04-10T15:10:30;19.10;59.00
47857;DHT22;33618;49.972;8.242;2023-04-10T15:12:57;18.90;59.50
47857;DHT22;33618;49.972;8.242;2023-04-10T15:15:24;19.10;60.20
47857;DHT22;33618;49.972;8.242;2023-04-10T15:17:51;19.00;59.60
47857;DHT22;33618;49.972;8.242;2023-04-10T15:20:18;19.10;59.80
47857;DHT22;33618;49.972;8.242;2023-04-10T15:22:44;19.20;59.40
47857;DHT22;33618;49.972;8.242;2023-04-10T15:25:13;19.10;60.30
47857;DHT22;33618;49.972;8.242;2023-04-10T15:27:40;19.10;61.00
47857;DHT22;33618;49.972;8.242;2023-04-10T15:30:07;18.80;59.30
47857;DHT22;33618;49.972;8.242;2023-04-10T15:32:36;18.70;60.40
47857;DHT22;33618;49.972;8.242;2023-04-10T15:35:04;18.50;60.00
47857;DHT22;33618;49.972;8.242;2023-04-10T15:37:33;18.60;60.10
47857;DHT22;33618;49.972;8.242;2023-04-10T15:40:01;18.50;60.00
47857;DHT22;33618;49.972;8.242;2023-04-10T15:42:29;18.50;60.80
47857;DHT22;33618;49.972;8.242;2023-04-10T15:44:56;18.60;60.80
47857;DHT22;33618;49.972;8.242;2023-04-10T15:47:23;18.60;61.50
47857;DHT22;33618;49.972;8.242;2023-04-10T15:49:50;18.50;61.10
47857;DHT22;33618;49.972;8.242;2023-04-10T15:52:17;18.50;61.10
47857;DHT22;33618;49.972;8.242;2023-04-10T15:54:44;18.40;60.90
47857;DHT22;33618;49.972;8.242;2023-04-10T15:57:10;18.10;61.00
47857;DHT22;33618;49.972;8.242;2023-04-10T15:59:37;18.10;61.80
47857;DHT22;33618;49.972;8.242;2023-04-10T16:02:04;18.10;61.80
47857;DHT22;33618;49.972;8.242;2023-04-10T16:04:31;18.00;62.60
47857;DHT22;33618;49.972;8.242;2023-04-10T16:06:58;17.90;62.10
47857;DHT22;33618;49.972;8.242;2023-04-10T16:09:25;17.90;62.40
47857;DHT22;33618;49.972;8.242;2023-04-10T16:11:53;17.80;62.50
47857;DHT22;33618;49.972;8.242;2023-04-10T16:14:21;17.80;61.20
47857;DHT22;33618;49.972;8.242;2023-04-10T16:16:48;17.80;62.10
47857;DHT22;33618;49.972;8.242;2023-04-10T16:19:15;17.70;61.10
47857;DHT22;33618;49.972;8.242;2023-04-10T16:21:41;17.50;61.80
47857;DHT22;33618;49.972;8.242;2023-04-10T16:24:08;17.60;62.00
47857;DHT22;33618;49.972;8.242;2023-04-10T16:26:35;17.50;61.10
47857;DHT22;33618;49.972;8.242;2023-04-10T16:29:02;17.40;60.80
47857;DHT22;33618;49.972;8.242;2023-04-10T16:31:29;17.50;60.10
47857;DHT22;33618;49.972;8.242;2023-04-10T16:33:56;17.40;59.90
47857;DHT22;33618;49.972;8.242;2023-04-10T16:36:23;17.30;59.80
47857;DHT22;33618;49.972;8.242;2023-04-10T16:38:50;17.20;59.60
47857;DHT22;33618;49.972;8.242;2023-04-10T16:41:17;17.20;60.30
47857;DHT22;33618;49.972;8.242;2023-04-10T16:43:46;17.10;60.20
47857;DHT22;33618;49.972;8.242;2023-04-10T16:46:13;17.10;60.40